Time;durP1;ratioP1;P1;durP2;ratioP2;P2;SDS_P1;SDS_P2;PMS_P1;PMS_P2;Temp;Humidity;BMP_temperature;BMP_pressure;BME280_temperature;BME280_humidity;BME280_pressure;Samples;Min_cycle;Max_cycle;Signal;HPM_P1;HPM_P2
2023/04/05 00:00:31;;;;;;;15.45;3.03;;;;;;;13.21;100.00;100799.91;2077573;28;20076;-75
2023/04/05 00:01:52;;;;;;;10.30;2.55;;;;;;;13.21;100.00;100806.97;2063873;28;20042;-75
2023/04/05 00:03:16;;;;;;;10.27;3.22;;;;;;;13.20;100.00;100792.84;2069256;28;20050;-74
2023/04/05 00:04:49;;;;;;;9.55;2.50;;;;;;;13.22;100.00;100790.19;2077983;28;20601;-75
2023/04/05 00:06:12;;;;;;;;;;;;;;;13.18;100.00;100804.31;2066068;28;20053;-74
2023/04/05 00:07:33;;;;;;;10.00;2.15;;;;;;;13.15;100.00;100803.41;2075009;28;19921;-75
2023/04/05 00:08:56;;;;;;;9.70;2.45;;;;;;;13.14;100.00;100798.09;2077758;28;20047;-75
2023/04/05 00:10:17;;;;;;;14.82;3.03;;;;;;;13.10;100.00;100799.84;2077856;28;20734;-74
2023/04/05 00:11:40;;;;;;;14.77;2.65;;;;;;;13.08;100.00;100798.94;2071938;28;20099;-75
2023/04/05 00:13:01;;;;;;;12.02;2.92;;;;;;;13.08;100.00;100800.69;2075960;28;20049;-75
2023/04/05 00:14:24;;;;;;;10.77;2.85;;;;;;;13.08;100.00;100798.03;2077151;28;20654;-75
2023/04/05 00:15:47;;;;;;;11.68;3.15;;;;;;;13.09;100.00;100799.81;2069204;28;20363;-75
2023/04/05 00:17:10;;;;;;;10.20;3.05;;;;;;;13.02;100.00;100800.66;2067817;28;20049;-75
2023/04/05 00:18:32;;;;;;;12.00;3.17;;;;;;;12.90;100.00;100803.22;2071984;28;20054;-75
2023/04/05 00:19:56;;;;;;;13.88;3.00;;;;;;;12.78;100.00;100798.75;2061019;28;20045;-75
2023/04/05 00:21:20;;;;;;;12.38;3.08;;;;;;;12.76;100.00;100798.72;2063806;28;20042;-75
2023/04/05 00:22:43;;;;;;;10.70;2.88;;;;;;;12.81;100.00;100808.44;2075514;28;20084;-75
2023/04/05 00:24:06;;;;;;;13.38;2.53;;;;;;;12.84;100.00;100800.53;2059689;28;20140;-75
2023/04/05 00:25:28;;;;;;;10.00;2.53;;;;;;;12.73;100.00;100809.28;2067136;28;20146;-75
2023/04/05 00:26:50;;;;;;;11.68;3.00;;;;;;;12.65;100.00;100811.00;2071959;28;20041;-75
2023/04/05 00:28:12;;;;;;;10.88;2.85;;;;;;;12.64;100.00;100813.63;2063273;28;20122;-75
2023/04/05 00:29:34;;;;;;;14.75;3.22;;;;;;;12.67;100.00;100814.53;2075335;28;20049;-75
2023/04/05 00:31:00;;;;;;;11.65;2.45;;;;;;;12.70;100.00;100809.28;2063719;28;20047;-74
2023/04/05 00:32:21;;;;;;;12.73;2.80;;;;;;;12.74;100.00;100816.34;2061306;28;20054;-75
2023/04/05 00:33:44;;;;;;;10.15;2.70;;;;;;;12.78;100.00;100814.63;2066659;28;20052;-75
2023/04/05 00:35:06;;;;;;;13.50;2.95;;;;;;;12.80;100.00;100812.00;2071306;28;20080;-74
2023/04/05 00:36:28;;;;;;;9.27;2.58;;;;;;;12.81;100.00;100806.69;2076641;28;20100;-75
2023/04/05 00:37:49;;;;;;;11.63;3.17;;;;;;;12.81;100.00;100805.81;2068070;28;20118;-75
2023/04/05 00:39:12;;;;;;;12.35;2.95;;;;;;;12.81;100.00;100805.81;2066172;28;20534;-74
2023/04/05 00:40:33;;;;;;;12.18;2.97;;;;;;;12.82;100.00;100810.22;2074536;28;20045;-75
2023/04/05 00:41:56;;;;;;;8.30;2.83;;;;;;;12.83;100.00;100818.19;2059738;28;20073;-75
2023/04/05 00:43:17;;;;;;;11.70;2.83;;;;;;;12.84;100.00;100817.31;2068452;28;20406;-75
2023/04/05 00:44:40;;;;;;;11.77;2.92;;;;;;;12.84;100.00;100821.72;2074073;28;20042;-74
2023/04/05 00:46:04;;;;;;;14.40;2.83;;;;;;;12.82;100.00;100821.72;2071897;28;20544;-74
2023/04/05 00:47:26;;;;;;;12.32;2.63;;;;;;;12.76;100.00;100819.91;2062858;28;20050;-74
2023/04/05 00:48:50;;;;;;;14.27;3.10;;;;;;;12.71;100.00;100818.09;2066609;28;20395;-74
2023/04/05 00:50:12;;;;;;;11.68;2.63;;;;;;;12.64;100.00;100817.19;2061144;28;20128;-74
2023/04/05 00:51:35;;;;;;;11.25;3.00;;;;;;;12.54;100.00;100828.53;2068744;28;20049;-74
2023/04/05 00:52:57;;;;;;;13.48;2.75;;;;;;;12.49;100.00;100818.78;2069192;28;20148;-73
2023/04/05 00:54:19;;;;;;;11.95;3.20;;;;;;;12.50;100.00;100824.13;2074666;28;20053;-74
2023/04/05 00:55:40;;;;;;;11.15;3.42;;;;;;;12.52;100.00;100816.19;2068860;28;20076;-74
2023/04/05 00:57:04;;;;;;;15.00;3.13;;;;;;;12.55;100.00;100825.03;2068906;28;20058;-74
2023/04/05 00:58:26;;;;;;;13.10;2.92;;;;;;;12.58;100.00;100822.41;2069459;28;20052;-73
2023/04/05 00:59:48;;;;;;;11.57;2.88;;;;;;;12.60;100.00;100823.31;2063423;28;20589;-75
2023/04/05 01:01:15;;;;;;;11.35;2.97;;;;;;;12.59;100.00;100823.31;2066422;28;20100;-75
2023/04/05 01:02:48;;;;;;;12.52;2.67;;;;;;;12.58;100.00;100834.78;2069821;28;20767;-75
2023/04/05 01:04:10;;;;;;;12.65;3.20;;;;;;;12.54;100.00;100839.13;2077344;28;20143;-74
2023/04/05 01:05:40;;;;;;;9.93;2.80;;;;;;;12.53;100.00;100828.56;2068953;28;20142;-75
2023/04/05 01:07:08;;;;;;;11.60;3.00;;;;;;;12.53;100.00;100833.84;2068741;28;20104;-75
2023/04/05 01:08:40;;;;;;;12.07;2.90;;;;;;;12.54;100.00;100831.19;2077791;28;20119;-75
2023/04/05 01:10:04;;;;;;;13.93;3.22;;;;;;;12.56;100.00;100826.81;2078274;28;20090;-75
2023/04/05 01:11:26;;;;;;;12.80;2.75;;;;;;;12.61;100.00;100832.13;2067762;28;20119;-75
2023/04/05 01:12:49;;;;;;;18.83;3.25;;;;;;;12.63;100.00;100836.59;2063501;28;20053;-75
2023/04/05 01:14:10;;;;;;;11.38;2.83;;;;;;;12.66;100.00;100844.56;2058389;28;20046;-75
2023/04/05 01:15:32;;;;;;;13.75;3.08;;;;;;;12.68;100.00;100844.56;2058075;28;20507;-75
2023/04/05 01:16:57;;;;;;;15.25;3.17;;;;;;;12.68;100.00;100839.25;2061097;28;20050;-74
2023/04/05 01:18:20;;;;;;;12.88;2.80;;;;;;;12.69;100.00;100847.22;2068723;28;20410;-75
2023/04/05 01:19:46;;;;;;;9.30;2.83;;;;;;;12.70;100.00;100840.16;2063884;28;20069;-75
2023/04/05 01:21:36;;;;;;;11.98;2.80;;;;;;;12.73;100.00;100841.06;2060835;28;20137;-75
2023/04/05 01:23:23;;;;;;;14.50;2.50;;;;;;;12.61;100.00;100840.97;2071207;28;20049;-75
2023/04/05 01:25:01;;;;;;;6.57;2.45;;;;;;;12.35;100.00;100840.75;2079168;28;20381;-75
2023/04/05 01:26:46;;;;;;;8.52;2.35;;;;;;;12.16;100.00;100845.84;2079281;28;20148;-75
2023/04/05 01:28:24;;;;;;;11.55;2.70;;;;;;;12.08;100.00;100840.47;2070675;28;20586;-75
2023/04/05 01:30:07;;;;;;;11.15;3.20;;;;;;;12.14;100.00;100844.94;2070527;28;20491;-75
2023/04/05 01:31:34;;;;;;;7.35;2.25;;;;;;;12.20;100.00;100847.66;2070893;28;20046;-75
2023/04/05 01:33:12;;;;;;;11.45;2.92;;;;;;;12.25;100.00;100849.47;2068733;28;20443;-75
2023/04/05 01:34:39;;;;;;;14.35;3.75;;;;;;;12.30;100.00;100853.06;2070923;28;20042;-75
2023/04/05 01:36:09;;;;;;;13.70;2.63;;;;;;;12.34;100.00;100853.94;2066787;28;20544;-75
2023/04/05 01:37:32;;;;;;;13.25;2.70;;;;;;;12.32;100.00;100858.38;2067181;28;20065;-75
2023/04/05 01:38:56;;;;;;;12.48;3.00;;;;;;;12.31;100.00;100853.94;2068715;28;20053;-75
2023/04/05 01:40:19;;;;;;;11.68;2.65;;;;;;;12.32;100.00;100858.38;2061123;28;20097;-75
2023/04/05 01:41:40;;;;;;;14.00;2.75;;;;;;;12.33;100.00;100863.69;2059653;28;20042;-75
2023/04/05 01:43:02;;;;;;;12.80;3.45;;;;;;;12.34;100.00;100860.13;2064025;28;20129;-75
2023/04/05 01:44:24;;;;;;;13.38;3.15;;;;;;;12.35;100.00;100864.56;2074462;28;20042;-75
2023/04/05 01:45:48;;;;;;;12.65;3.08;;;;;;;12.37;100.00;100860.19;2065844;28;20057;-74
2023/04/05 01:47:10;;;;;;;15.23;3.25;;;;;;;12.38;100.00;100861.06;2058588;28;20055;-74
2023/04/05 01:48:32;;;;;;;12.60;3.10;;;;;;;12.38;100.00;100866.38;2066391;28;20459;-75
2023/04/05 01:49:56;;;;;;;9.82;2.65;;;;;;;12.39;100.00;100860.19;2060664;28;20050;-74
2023/04/05 01:51:20;;;;;;;16.17;2.83;;;;;;;12.38;100.00;100869.00;2066949;28;20124;-74
2023/04/05 01:52:42;;;;;;;14.82;3.08;;;;;;;12.40;100.00;100867.28;2073265;28;20041;-75
2023/04/05 01:54:04;;;;;;;13.13;3.67;;;;;;;12.40;100.00;100864.63;2074426;28;20569;-75
2023/04/05 01:55:26;;;;;;;11.77;2.88;;;;;;;12.41;100.00;100860.19;2068209;28;20250;-75
2023/04/05 01:56:48;;;;;;;10.18;2.72;;;;;;;12.43;100.00;100863.75;2071177;28;20056;-74
2023/04/05 01:58:10;;;;;;;13.25;5.10;;;;;;;12.43;100.00;100859.34;2060319;28;20050;-74
2023/04/05 01:59:32;;;;;;;13.77;5.38;;;;;;;12.45;100.00;100856.72;2070627;28;20049;-74
2023/04/05 02:00:57;;;;;;;10.13;4.05;;;;;;;12.45;100.00;100851.44;2070999;28;20568;-75
2023/04/05 02:02:18;;;;;;;13.88;4.57;;;;;;;12.44;100.00;100849.66;2071987;28;20528;-75
2023/04/05 02:03:40;;;;;;;16.95;3.92;;;;;;;12.45;100.00;100857.63;2063038;28;20062;-75
2023/04/05 02:05:03;;;;;;;12.73;3.22;;;;;;;12.40;100.00;100864.63;2070176;28;20045;-75
2023/04/05 02:06:25;;;;;;;12.23;2.55;;;;;;;12.26;100.00;100866.25;2067519;28;20061;-75
2023/04/05 02:07:47;;;;;;;17.05;3.80;;;;;;;12.12;100.00;100868.75;2074217;28;20088;-74
2023/04/05 02:09:09;;;;;;;16.50;4.45;;;;;;;12.04;100.00;100867.75;2070872;28;20041;-75
2023/04/05 02:10:31;;;;;;;12.10;4.53;;;;;;;12.06;100.00;100873.09;2066131;28;20077;-75
2023/04/05 02:11:52;;;;;;;12.07;4.93;;;;;;;12.10;100.00;100874.88;2070189;28;20068;-75
2023/04/05 02:13:15;;;;;;;11.52;4.03;;;;;;;12.15;100.00;100871.41;2067482;28;20042;-74
2023/04/05 02:14:37;;;;;;;15.50;3.97;;;;;;;12.19;100.00;100867.06;2063770;28;20049;-75
2023/04/05 02:16:01;;;;;;;17.02;4.85;;;;;;;12.23;100.00;100868.84;2076799;28;20042;-75
2023/04/05 02:17:23;;;;;;;16.55;4.20;;;;;;;12.24;100.00;100878.56;2068534;28;20164;-74
2023/04/05 02:18:49;;;;;;;14.75;3.67;;;;;;;12.25;100.00;100875.94;2082171;28;20061;-75
2023/04/05 02:20:13;;;;;;;13.02;3.22;;;;;;;12.25;100.00;100881.25;2067938;28;20081;-74
2023/04/05 02:21:35;;;;;;;13.10;3.22;;;;;;;12.22;100.00;100890.88;2066958;28;20514;-75
2023/04/05 02:22:57;;;;;;;8.35;2.63;;;;;;;12.15;100.00;100884.63;2070054;28;20050;-74
2023/04/05 02:24:20;;;;;;;15.45;3.45;;;;;;;12.10;100.00;100881.06;2068586;28;20100;-75
2023/04/05 02:25:43;;;;;;;15.35;3.45;;;;;;;12.08;100.00;100882.78;2067894;28;20501;-75
2023/04/05 02:27:04;;;;;;;12.13;3.05;;;;;;;12.11;100.00;100881.94;2073505;28;20508;-75
2023/04/05 02:28:27;;;;;;;14.95;3.20;;;;;;;12.14;100.00;100877.56;2071320;28;20050;-75
2023/04/05 02:29:48;;;;;;;14.25;3.25;;;;;;;12.18;100.00;100875.84;2068455;28;20042;-74
2023/04/05 02:31:13;;;;;;;16.25;3.75;;;;;;;12.20;100.00;100887.34;2068663;28;20084;-74
2023/04/05 02:32:37;;;;;;;12.77;3.25;;;;;;;12.22;100.00;100885.59;2063420;28;20042;-74
2023/04/05 02:33:59;;;;;;;13.80;3.38;;;;;;;12.26;100.00;100892.72;2065834;28;20533;-74
2023/04/05 02:35:22;;;;;;;14.63;3.70;;;;;;;12.27;100.00;100891.84;2054435;28;20053;-74
2023/04/05 02:36:46;;;;;;;12.70;3.03;;;;;;;12.27;100.00;100889.19;2061987;28;20524;-74
2023/04/05 02:38:08;;;;;;;11.15;2.80;;;;;;;12.20;100.00;100882.94;2068540;28;20057;-74
2023/04/05 02:39:31;;;;;;;19.25;3.25;;;;;;;12.17;100.00;100874.06;2077044;28;20049;-74
2023/04/05 02:40:52;;;;;;;14.05;4.82;;;;;;;12.17;100.00;100877.63;2070197;28;20050;-74
2023/04/05 02:42:15;;;;;;;17.33;4.60;;;;;;;12.17;100.00;100871.44;2072747;28;20080;-74
2023/04/05 02:43:36;;;;;;;12.50;4.15;;;;;;;12.16;100.00;100878.47;2068535;28;20041;-73
2023/04/05 02:44:58;;;;;;;18.38;4.22;;;;;;;12.14;100.00;100877.56;2069724;28;20050;-74
2023/04/05 02:46:22;;;;;;;20.23;3.60;;;;;;;12.13;100.00;100881.09;2067303;28;20050;-73
2023/04/05 02:47:45;;;;;;;14.63;4.03;;;;;;;12.14;100.00;100884.66;2074315;28;20052;-74
2023/04/05 02:49:07;;;;;;;17.20;3.47;;;;;;;12.16;100.00;100885.53;2068266;28;20046;-75
2023/04/05 02:50:30;;;;;;;12.23;2.80;;;;;;;12.17;100.00;100892.59;2067199;28;20514;-75
2023/04/05 02:51:54;;;;;;;13.18;3.05;;;;;;;12.14;100.00;100896.09;2057428;28;20077;-74
2023/04/05 02:53:17;;;;;;;14.20;3.40;;;;;;;12.12;100.00;100896.97;2067049;28;20111;-74
2023/04/05 02:54:46;;;;;;;9.90;2.72;;;;;;;12.05;100.00;100901.28;2061634;28;20149;-75
2023/04/05 02:56:12;;;;;;;13.30;3.30;;;;;;;12.03;100.00;100889.78;2064696;28;20073;-75
2023/04/05 02:57:37;;;;;;;11.95;3.10;;;;;;;12.02;100.00;100897.72;2069011;28;20168;-75
2023/04/05 02:59:14;;;;;;;13.75;2.80;;;;;;;12.01;100.00;100902.16;2069858;28;20049;-75
2023/04/05 03:00:39;;;;;;;11.65;2.90;;;;;;;11.97;100.00;100903.84;2067120;28;20041;-75
2023/04/05 03:02:04;;;;;;;13.85;3.28;;;;;;;11.93;100.00;100899.41;2066267;28;20054;-74
2023/04/05 03:03:27;;;;;;;13.13;3.00;;;;;;;11.94;100.00;100903.81;2060240;28;20093;-74
2023/04/05 03:04:51;;;;;;;14.38;3.17;;;;;;;11.98;100.00;100902.09;2065950;28;20131;-74
2023/04/05 03:06:14;;;;;;;15.60;3.00;;;;;;;12.01;100.00;100906.53;2062551;28;20081;-74
2023/04/05 03:07:41;;;;;;;10.55;3.20;;;;;;;12.01;100.00;100914.47;2060816;28;20089;-75
2023/04/05 03:09:08;;;;;;;16.73;2.88;;;;;;;11.98;100.00;100913.56;2074870;28;20141;-74
2023/04/05 03:10:33;;;;;;;13.23;3.33;;;;;;;11.96;100.00;100914.41;2062889;28;20566;-74
2023/04/05 03:12:02;;;;;;;16.92;3.05;;;;;;;11.94;100.00;100911.75;2070925;28;20138;-75
2023/04/05 03:13:24;;;;;;;11.13;3.38;;;;;;;11.94;100.00;100911.75;2068114;28;20096;-75
2023/04/05 03:14:48;;;;;;;17.48;3.85;;;;;;;11.93;100.00;100909.97;2067663;28;20530;-75
2023/04/05 03:16:12;;;;;;;14.82;3.60;;;;;;;11.94;100.00;100908.22;2067309;28;20553;-74
2023/04/05 03:17:38;;;;;;;20.73;3.80;;;;;;;11.94;100.00;100910.88;2069966;28;20046;-74
2023/04/05 03:19:01;;;;;;;14.10;2.90;;;;;;;11.94;100.00;100908.22;2070311;28;20061;-74
2023/04/05 03:20:24;;;;;;;11.02;3.08;;;;;;;11.92;100.00;100915.25;2072854;28;20091;-74
2023/04/05 03:21:49;;;;;;;12.00;2.90;;;;;;;11.88;100.00;100909.00;2062958;28;20046;-74
2023/04/05 03:23:25;;;;;;;14.45;3.00;;;;;;;11.85;100.00;100914.28;2070056;28;20046;-75
2023/04/05 03:24:48;;;;;;;14.75;3.13;;;;;;;11.85;100.00;100921.31;2057827;28;20046;-74
2023/04/05 03:26:13;;;;;;;12.23;2.72;;;;;;;11.84;100.00;100920.44;2060083;28;20143;-75
2023/04/05 03:27:38;;;;;;;14.70;3.65;;;;;;;11.83;100.00;100908.06;2067543;28;20049;-74
2023/04/05 03:29:05;;;;;;;16.50;3.42;;;;;;;11.83;100.00;100909.81;2070225;28;20046;-75
2023/04/05 03:30:29;;;;;;;13.35;3.20;;;;;;;11.79;100.00;100900.97;2074917;28;20060;-75
2023/04/05 03:31:59;;;;;;;14.45;3.28;;;;;;;11.79;100.00;100905.38;2069494;28;20042;-74
2023/04/05 03:33:22;;;;;;;11.77;2.78;;;;;;;11.79;100.00;100914.19;2066707;28;20050;-75
2023/04/05 03:34:46;;;;;;;10.32;3.05;;;;;;;11.79;100.00;100910.66;2068461;28;20038;-75
2023/04/05 03:36:10;;;;;;;14.07;3.25;;;;;;;11.78;100.00;100912.41;2074620;28;20041;-74
2023/04/05 03:37:33;;;;;;;16.02;3.38;;;;;;;11.78;100.00;100919.47;2063975;28;20050;-74
2023/04/05 03:38:59;;;;;;;10.77;3.05;;;;;;;11.77;100.00;100925.63;2067590;28;20095;-74
2023/04/05 03:40:20;;;;;;;12.57;3.33;;;;;;;11.76;100.00;100932.66;2075280;28;20581;-74
2023/04/05 03:41:43;;;;;;;18.17;3.70;;;;;;;11.75;100.00;100922.94;2068491;28;20449;-75
2023/04/05 03:43:07;;;;;;;10.25;2.72;;;;;;;11.76;100.00;100924.72;2066564;28;20461;-74
2023/04/05 03:44:30;;;;;;;16.90;3.28;;;;;;;11.78;100.00;100928.28;2061215;28;20050;-74
2023/04/05 03:45:52;;;;;;;15.75;3.22;;;;;;;11.80;100.00;100923.03;2067717;28;20041;-74
2023/04/05 03:47:14;;;;;;;12.27;2.92;;;;;;;11.84;100.00;100925.72;2074117;28;20033;-74
2023/04/05 03:48:39;;;;;;;10.80;2.50;;;;;;;11.84;100.00;100925.72;2068422;28;20123;-74
2023/04/05 03:50:01;;;;;;;10.48;2.53;;;;;;;11.85;100.00;100916.91;2067154;28;20038;-74
2023/04/05 03:51:24;;;;;;;8.73;2.85;;;;;;;11.86;100.00;100924.00;2065595;28;20041;-74
2023/04/05 03:52:45;;;;;;;13.23;3.55;;;;;;;11.86;100.00;100916.06;2075113;28;20148;-74
2023/04/05 03:54:08;;;;;;;10.05;3.47;;;;;;;11.89;100.00;100920.47;2069312;28;20038;-74
2023/04/05 03:55:32;;;;;;;12.27;3.75;;;;;;;11.91;100.00;100927.59;2068763;28;20605;-75
2023/04/05 03:56:58;;;;;;;14.70;3.58;;;;;;;11.92;100.00;100932.00;2060158;28;20046;-75
2023/04/05 03:58:21;;;;;;;11.77;4.68;;;;;;;11.90;100.00;100933.72;2061590;28;20049;-75
2023/04/05 03:59:42;;;;;;;13.80;4.63;;;;;;;11.86;100.00;100933.69;2065318;28;20280;-75
2023/04/05 04:01:05;;;;;;;13.52;3.80;;;;;;;11.79;100.00;100938.00;2070035;28;20041;-74
2023/04/05 04:02:26;;;;;;;12.27;3.90;;;;;;;11.76;100.00;100942.34;2075211;28;20721;-75
2023/04/05 04:03:51;;;;;;;13.90;4.30;;;;;;;11.76;100.00;100937.94;2077251;28;20049;-75
2023/04/05 04:05:13;;;;;;;11.38;3.90;;;;;;;11.78;100.00;100938.88;2068450;28;20042;-75
2023/04/05 04:06:36;;;;;;;13.13;3.92;;;;;;;11.81;100.00;100943.31;2069208;28;20401;-75
2023/04/05 04:07:59;;;;;;;16.45;6.25;;;;;;;11.81;100.00;100935.38;2069367;28;20144;-75
2023/04/05 04:09:22;;;;;;;12.32;3.90;;;;;;;11.81;100.00;100938.94;2065666;28;20077;-75
2023/04/05 04:10:44;;;;;;;10.18;3.17;;;;;;;11.75;100.00;100938.81;2072203;28;20136;-75
2023/04/05 04:12:14;;;;;;;11.13;2.45;;;;;;;11.69;100.00;100936.06;2069747;28;20093;-75
2023/04/05 04:13:47;;;;;;;9.30;3.35;;;;;;;11.68;100.00;100934.31;2062582;28;20050;-75
2023/04/05 04:15:29;;;;;;;14.75;3.17;;;;;;;11.71;100.00;100936.97;2070656;28;20046;-74
2023/04/05 04:17:09;;;;;;;10.52;2.97;;;;;;;11.77;100.00;100947.66;2074188;28;20045;-74
2023/04/05 04:19:02;;;;;;;11.40;2.97;;;;;;;11.83;100.00;100947.75;2070939;28;20038;-74
2023/04/05 04:20:24;;;;;;;7.40;2.60;;;;;;;11.87;100.00;100962.81;2074623;28;20515;-73
2023/04/05 04:22:12;;;;;;;8.65;2.72;;;;;;;11.90;100.00;100970.78;2078615;28;20402;-73
2023/04/05 04:24:04;;;;;;;9.20;2.90;;;;;;;11.94;100.00;100964.66;2070842;28;20037;-73
2023/04/05 04:25:54;;;;;;;11.35;3.08;;;;;;;12.00;100.00;100968.25;2078419;28;20489;-75
2023/04/05 04:27:40;;;;;;;9.48;2.50;;;;;;;12.09;100.00;100969.25;2073446;28;20077;-75
2023/04/05 04:29:17;;;;;;;8.00;2.25;;;;;;;12.21;100.00;100974.69;2071367;28;20049;-75
2023/04/05 04:31:08;;;;;;;9.35;2.92;;;;;;;12.33;100.00;100981.91;2067214;28;20046;-74
2023/04/05 04:33:08;;;;;;;9.23;2.22;;;;;;;12.44;100.00;100982.91;2070160;28;20056;-74
2023/04/05 04:34:57;;;;;;;7.47;2.58;;;;;;;12.56;100.00;100976.88;2077982;28;20069;-75
2023/04/05 04:36:59;;;;;;;8.18;2.58;;;;;;;12.68;100.00;100984.94;2075921;28;20046;-75
2023/04/05 04:38:43;;;;;;;10.88;2.40;;;;;;;12.80;100.00;100977.09;2079323;28;20111;-74
2023/04/05 04:40:49;;;;;;;8.50;2.50;;;;;;;12.96;100.00;100976.41;2070550;28;20419;-74
2023/04/05 04:42:37;;;;;;;7.35;2.50;;;;;;;13.12;100.00;100977.44;2084421;28;20068;-74
2023/04/05 04:44:30;;;;;;;7.57;2.88;;;;;;;13.27;100.00;100974.03;2065624;28;20774;-74
2023/04/05 04:46:29;;;;;;;11.18;2.63;;;;;;;13.36;100.00;100959.09;2080332;28;20057;-74
2023/04/05 04:48:04;;;;;;;11.27;2.28;;;;;;;13.50;100.00;100969.81;2071452;28;20100;-75
2023/04/05 04:49:53;;;;;;;10.10;2.63;;;;;;;13.61;100.00;100968.09;2066431;28;20117;-74
2023/04/05 04:51:18;;;;;;;8.18;2.30;;;;;;;13.72;100.00;100968.19;2077341;28;20050;-74
2023/04/05 04:52:39;;;;;;;9.77;2.78;;;;;;;13.80;100.00;100983.25;2069490;28;20049;-74
2023/04/05 04:54:02;;;;;;;9.10;3.13;;;;;;;13.84;100.00;100981.53;2064341;28;20553;-74
2023/04/05 04:55:24;;;;;;;6.25;2.50;;;;;;;13.84;100.00;100984.19;2070073;28;20045;-76
2023/04/05 04:56:47;;;;;;;9.82;2.70;;;;;;;13.85;100.00;100997.44;2061674;28;20054;-75
2023/04/05 04:58:09;;;;;;;7.32;2.47;;;;;;;13.93;100.00;100994.81;2074644;28;20086;-74
2023/04/05 04:59:32;;;;;;;6.68;2.70;;;;;;;14.03;100.00;100986.06;2077010;28;20045;-75
2023/04/05 05:00:58;;;;;;;7.22;2.40;;;;;;;14.12;100.00;100996.69;2071688;28;20050;-75
2023/04/05 05:02:24;;;;;;;6.80;2.92;;;;;;;14.20;100.00;100988.75;2082085;28;20049;-75
2023/04/05 05:03:47;;;;;;;8.63;3.03;;;;;;;14.27;100.00;100994.13;2078829;28;20067;-75
2023/04/05 05:05:14;;;;;;;7.97;3.10;;;;;;;14.36;100.00;100990.63;2068617;28;20517;-75
2023/04/05 05:06:38;;;;;;;9.25;3.97;;;;;;;14.44;100.00;100988.88;2073843;28;20387;-74
2023/04/05 05:08:01;;;;;;;9.30;4.20;;;;;;;14.53;100.00;100988.03;2068990;28;20077;-75
2023/04/05 05:09:22;;;;;;;11.82;5.00;;;;;;;14.57;100.00;100984.53;2071089;28;20049;-75
2023/04/05 05:10:52;;;;;;;13.35;5.18;;;;;;;14.64;100.00;100986.28;2061286;28;20046;-75
2023/04/05 05:12:15;;;;;;;10.73;4.38;;;;;;;14.70;100.00;100978.38;2075363;28;20088;-75
2023/04/05 05:13:37;;;;;;;10.88;4.43;;;;;;;14.78;100.00;100981.91;2071281;28;20057;-74
2023/04/05 05:15:00;;;;;;;11.13;4.22;;;;;;;14.85;100.00;100977.47;2070318;28;20077;-75
2023/04/05 05:16:22;;;;;;;11.30;4.57;;;;;;;14.93;100.00;100979.28;2068638;28;20049;-74
2023/04/05 05:17:45;;;;;;;9.20;3.95;;;;;;;15.04;100.00;100974.84;2060035;28;20141;-75
2023/04/05 05:19:07;;;;;;;10.38;4.22;;;;;;;15.20;100.00;100978.41;2071391;28;20420;-74
2023/04/05 05:20:38;;;;;;;10.02;3.95;;;;;;;15.35;100.00;100982.84;2063054;28;20058;-75
2023/04/05 05:22:01;;;;;;;11.18;3.90;;;;;;;15.49;100.00;100976.59;2066117;28;20041;-75
2023/04/05 05:23:24;;;;;;;10.10;4.00;;;;;;;15.60;100.00;100983.75;2064945;28;20049;-75
2023/04/05 05:24:48;;;;;;;9.88;3.60;;;;;;;15.68;100.00;100977.53;2074399;28;20088;-75
2023/04/05 05:26:11;;;;;;;10.63;3.60;;;;;;;15.80;100.00;100977.50;2074563;28;20068;-75
2023/04/05 05:27:33;;;;;;;9.73;3.60;;;;;;;15.93;100.00;100978.34;2083409;28;20571;-75
2023/04/05 05:28:56;;;;;;;9.52;3.40;;;;;;;16.05;100.00;100980.09;2076492;28;20087;-75
2023/04/05 05:30:20;;;;;;;10.55;3.22;;;;;;;16.15;100.00;100976.47;2072686;28;20062;-74
2023/04/05 05:31:43;;;;;;;8.20;3.33;;;;;;;16.25;100.00;100981.78;2073320;28;20045;-76
2023/04/05 05:33:06;;;;;;;9.07;2.92;;;;;;;16.34;100.00;100980.88;2065578;28;20233;-75
2023/04/05 05:34:27;;;;;;;9.93;3.15;;;;;;;16.44;100.00;100984.34;2072539;28;20152;-75
2023/04/05 05:35:52;;;;;;;5.63;2.72;;;;;;;16.52;100.00;100990.56;2067428;28;20050;-75
2023/04/05 05:37:16;;;;;;;7.60;3.08;;;;;;;16.64;100.00;100993.19;2073034;28;20112;-75
2023/04/05 05:38:41;;;;;;;6.68;2.70;;;;;;;16.73;100.00;100998.47;2068190;28;20069;-75
2023/04/05 05:40:05;;;;;;;10.15;2.92;;;;;;;16.82;100.00;100986.84;2068932;28;20069;-75
2023/04/05 05:41:27;;;;;;;9.02;3.20;;;;;;;16.92;100.00;100988.56;2061135;28;20065;-75
2023/04/05 05:42:50;;;;;;;7.45;2.80;;;;;;;17.02;100.00;100984.94;2077040;28;20522;-75
2023/04/05 05:44:11;;;;;;;9.70;3.28;;;;;;;17.11;100.00;100982.19;2066573;28;20656;-75
2023/04/05 05:45:34;;;;;;;6.50;2.58;;;;;;;17.25;100.00;100982.09;2066971;28;20038;-75
2023/04/05 05:46:57;;;;;;;6.97;2.28;;;;;;;17.41;100.00;100983.72;2074123;28;20098;-75
2023/04/05 05:48:19;;;;;;;8.32;2.17;;;;;;;17.61;100.00;100986.25;2075355;28;20045;-75
2023/04/05 05:49:42;;;;;;;8.50;2.38;;;;;;;17.75;100.00;100979.88;2069992;28;20053;-75
2023/04/05 05:51:08;;;;;;;7.72;2.88;;;;;;;17.91;100.00;100981.50;2073548;28;20208;-75
2023/04/05 05:52:34;;;;;;;5.78;3.28;;;;;;;18.06;100.00;100976.84;2074433;28;20052;-76
2023/04/05 05:53:57;;;;;;;10.05;4.20;;;;;;;18.19;100.00;100981.16;2078985;28;20093;-75
2023/04/05 05:55:19;;;;;;;7.00;3.53;;;;;;;18.30;100.00;100982.81;2074209;28;20068;-75
2023/04/05 05:56:42;;;;;;;10.10;4.38;;;;;;;18.40;100.00;100972.88;2074766;28;20199;-75
2023/04/05 05:58:05;;;;;;;7.00;2.63;;;;;;;18.48;100.00;100976.34;2076360;28;20041;-76
2023/04/05 05:59:28;;;;;;;7.97;2.83;;;;;;;18.58;100.00;100969.09;2075276;28;20049;-76
2023/04/05 06:00:55;;;;;;;6.60;2.65;;;;;;;18.68;100.00;100971.63;2072186;28;20054;-75
2023/04/05 06:02:18;;;;;;;6.47;2.55;;;;;;;18.78;100.00;100980.38;2074396;28;20041;-76
2023/04/05 06:03:40;;;;;;;7.70;2.63;;;;;;;18.88;100.00;100981.16;2060390;28;20481;-76
2023/04/05 06:05:03;;;;;;;5.80;2.40;;;;;;;18.97;100.00;100987.22;2078996;28;20408;-76
2023/04/05 06:06:28;;;;;;;7.85;3.10;;;;;;;19.06;100.00;100983.53;2069725;28;20056;-76
2023/04/05 06:07:52;;;;;;;4.25;1.98;;;;;;;19.18;100.00;100980.66;2068814;28;20042;-75
2023/04/05 06:09:14;;;;;;;3.70;1.67;;;;;;;19.26;96.66;100977.88;2060532;28;20054;-76
2023/04/05 06:10:37;;;;;;;2.78;1.30;;;;;;;19.29;81.41;100978.72;2068682;28;20053;-75
2023/04/05 06:12:00;;;;;;;3.97;1.45;;;;;;;19.36;79.69;100987.53;2060199;28;20321;-75
2023/04/05 06:13:21;;;;;;;6.72;2.00;;;;;;;19.46;76.29;100981.13;2065963;28;20054;-76
2023/04/05 06:14:43;;;;;;;4.03;1.80;;;;;;;19.57;74.72;100979.13;2065481;28;20069;-76
2023/04/05 06:16:06;;;;;;;5.05;2.05;;;;;;;19.69;72.99;100986.94;2068531;28;20049;-76
2023/04/05 06:17:29;;;;;;;4.30;1.70;;;;;;;19.78;70.56;100991.25;2073895;28;20053;-76
2023/04/05 06:18:54;;;;;;;3.72;1.23;;;;;;;19.87;71.47;100986.63;2060647;28;20046;-76
2023/04/05 06:20:16;;;;;;;6.10;1.10;;;;;;;20.00;68.43;100983.72;2074777;28;20081;-76
2023/04/05 06:21:39;;;;;;;2.25;1.02;;;;;;;20.15;63.65;100983.41;2070883;28;20046;-75
2023/04/05 06:23:03;;;;;;;4.55;1.25;;;;;;;20.34;59.74;100987.53;2068595;28;20053;-76
2023/04/05 06:24:26;;;;;;;4.47;1.17;;;;;;;20.46;60.52;100981.00;2068491;28;20103;-76
2023/04/05 06:25:49;;;;;;;3.42;1.25;;;;;;;20.59;59.72;100991.44;2068357;28;20137;-76
2023/04/05 06:27:13;;;;;;;5.95;2.90;;;;;;;20.68;54.65;100980.47;2060029;28;20046;-76
2023/04/05 06:28:35;;;;;;;6.47;2.25;;;;;;;20.76;54.84;100988.38;2067303;28;20144;-76
2023/04/05 06:30:00;;;;;;;5.00;1.65;;;;;;;20.87;55.17;100980.09;2072389;28;20054;-76
2023/04/05 06:31:28;;;;;;;4.18;1.90;;;;;;;20.95;54.63;100984.34;2073560;28;20050;-76